DTTL

Kelibia Airport

Kelibia, Tunisia
METAR DTTL 192100Z AUTO 19010KT 160V250 NCD 20/16 Q1002
Observed Flight Rules
Nov-19 @ 21:00 UTC (an hour ago)
Wind Clouds
190° at 10 knots
  • Clear skies
Temperatures Readings
Current 20°C / 68°F
Dewpoint 16°C / 61°F
Humidity 78%
Altimeter 29.59" Hg
Pressure 1002 hPa
Elevation 30
METAR DTTL 192100Z AUTO 19010KT 160V250 NCD 20/16 Q1002
Observed Flight Rules
Nov-19 @ 21:00 UTC
(an hour ago)
Wind
190° at 10 knots
Clouds
  • Clear skies
Temperature Dewpoint
20°C / 68°F 16°C / 61°F
Humidity Altimeter Pressure
78% 29.59" Hg 1002 hPa